^^
Lisbon, NH - Weather Station Historical Data
Daily Summary for April 18, 2021 Units:  English    Metric   Both
Daily Weekly Monthly Yearly
  High: Low: Average:
Temperature: 52.4 °F 34.7 °F 41.5 °F
Dew Point: 39.6 °F 33.7 °F 35.4 °F
Humidity: 100% 52.1% 81%
Wind Speed: 1.1mph 0mph 0mph
Wind Gust: 10mph - -
Wind- - ESE
Pressure: 29.79 in 29.71 in -
Precipitation: 0.00 in    
 
 
Tabular Data for April 18, 2021
Time Temperature Dew Point Pressure Wind Wind Speed Wind Gust Humidity Rainfall Rate (Hourly) solar
00:04 35.3 °F 34 °F 29.76 in Calm     95% 0.00 in 0 W/m2
00:09 35.1 °F 33.8 °F 29.76 in Calm     95% 0.00 in 0 W/m2
00:14 35 °F 33.7 °F 29.76 in Calm     95% 0.00 in 0 W/m2
00:19 34.8 °F 33.7 °F 29.75 in Calm     95.4% 0.00 in 0 W/m2
00:24 34.8 °F 33.8 °F 29.75 in Calm     96% 0.00 in 0 W/m2
00:29 34.7 °F 33.7 °F 29.75 in Calm     96% 0.00 in 0 W/m2
00:34 34.7 °F 33.7 °F 29.75 in Calm     96% 0.00 in 0 W/m2
00:39 34.7 °F 33.7 °F 29.75 in Calm     96% 0.00 in 0 W/m2
00:44 34.7 °F 33.7 °F 29.75 in Calm     96% 0.00 in 0 W/m2
00:49 34.7 °F 33.7 °F 29.75 in Calm     96% 0.00 in 0 W/m2
00:54 34.7 °F 33.9 °F 29.75 in Calm     96.8% 0.00 in 0 W/m2
00:59 34.8 °F 34 °F 29.75 in Calm     97% 0.00 in 0 W/m2
01:04 34.8 °F 34 °F 29.75 in Calm     97% 0.00 in 0 W/m2
01:09 34.8 °F 34 °F 29.75 in Calm     97% 0.00 in 0 W/m2
01:14 34.8 °F 34 °F 29.75 in Calm     97% 0.00 in 0 W/m2
01:19 34.7 °F 33.9 °F 29.75 in Calm     97% 0.00 in 0 W/m2
01:24 34.7 °F 33.9 °F 29.75 in Calm     97% 0.00 in 0 W/m2
01:29 34.8 °F 34 °F 29.75 in Calm     97% 0.00 in 0 W/m2
01:34 34.7 °F 34 °F 29.75 in Calm     97% 0.00 in 0 W/m2
01:39 34.7 °F 34.2 °F 29.75 in Calm     97.9% 0.00 in 0 W/m2
01:44 34.7 °F 34.2 °F 29.75 in Calm     98% 0.00 in 0 W/m2
01:49 34.7 °F 34.2 °F 29.75 in Calm     98% 0.00 in 0 W/m2
01:54 34.7 °F 34.2 °F 29.75 in Calm     98% 0.00 in 0 W/m2
01:59 34.7 °F 34.2 °F 29.75 in Calm     98% 0.00 in 0 W/m2
02:04 34.8 °F 34.3 °F 29.74 in Calm     98% 0.00 in 0 W/m2
02:09 34.8 °F 34.3 °F 29.74 in Calm     98% 0.00 in 0 W/m2
02:14 34.8 °F 34.3 °F 29.74 in Calm     98% 0.00 in 0 W/m2
02:19 34.8 °F 34.3 °F 29.74 in Calm     98% 0.00 in 0 W/m2
02:24 34.8 °F 34.3 °F 29.74 in Calm     98% 0.00 in 0 W/m2
02:29 34.8 °F 34.3 °F 29.74 in Calm     98% 0.00 in 0 W/m2
02:34 34.8 °F 34.3 °F 29.74 in Calm     98% 0.00 in 0 W/m2
02:39 34.8 °F 34.3 °F 29.74 in Calm     98% 0.00 in 0 W/m2
02:44 34.8 °F 34.3 °F 29.74 in Calm     98% 0.00 in 0 W/m2
02:49 34.8 °F 34.4 °F 29.74 in Calm     98.3% 0.00 in 0 W/m2
02:54 34.8 °F 34.6 °F 29.74 in Calm     99% 0.00 in 0 W/m2
02:59 34.8 °F 34.6 °F 29.74 in Calm     99% 0.00 in 0 W/m2
03:04 34.8 °F 34.6 °F 29.74 in Calm     99% 0.00 in 0 W/m2
03:09 34.8 °F 34.6 °F 29.74 in Calm     99% 0.00 in 0 W/m2
03:14 34.8 °F 34.6 °F 29.74 in Calm     99% 0.00 in 0 W/m2
03:19 34.8 °F 34.6 °F 29.74 in Calm     99% 0.00 in 0 W/m2
03:24 34.8 °F 34.6 °F 29.74 in Calm     99% 0.00 in 0 W/m2
03:29 34.8 °F 34.6 °F 29.74 in Calm     99% 0.00 in 0 W/m2
03:34 34.8 °F 34.6 °F 29.74 in Calm     99% 0.00 in 0 W/m2
03:39 34.8 °F 34.6 °F 29.74 in Calm     99% 0.00 in 0 W/m2
03:44 34.8 °F 34.6 °F 29.75 in Calm     99% 0.00 in 0 W/m2
03:49 34.9 °F 34.7 °F 29.75 in Calm     99% 0.00 in 0 W/m2
03:54 35 °F 34.8 °F 29.75 in Calm     99% 0.00 in 0 W/m2
03:59 35 °F 34.8 °F 29.75 in Calm     99% 0.00 in 0 W/m2
04:04 35.1 °F 34.8 °F 29.74 in Calm     99% 0.00 in 0 W/m2
04:09 35.1 °F 34.8 °F 29.74 in Calm     99% 0.00 in 0 W/m2
04:14 35.1 °F 34.8 °F 29.75 in Calm     99% 0.00 in 0 W/m2
04:19 35.1 °F 34.8 °F 29.75 in Calm     99% 0.00 in 0 W/m2
04:24 35.1 °F 34.8 °F 29.75 in Calm     99% 0.00 in 0 W/m2
04:29 35.1 °F 34.8 °F 29.75 in Calm     99% 0.00 in 0 W/m2
04:34 35.1 °F 34.8 °F 29.75 in Calm     99% 0.00 in 0 W/m2
04:39 35.1 °F 34.8 °F 29.75 in Calm     99% 0.00 in 0 W/m2
04:44 35 °F 34.8 °F 29.75 in Calm     99% 0.00 in 0 W/m2
04:49 35 °F 34.8 °F 29.74 in Calm     99% 0.00 in 0 W/m2
04:54 35 °F 34.8 °F 29.74 in Calm     99% 0.00 in 0 W/m2
04:59 35 °F 34.8 °F 29.74 in Calm     99% 0.00 in 0 W/m2
05:04 35 °F 34.8 °F 29.74 in Calm     99% 0.00 in 0 W/m2
05:09 35 °F 34.8 °F 29.74 in Calm     99% 0.00 in 0 W/m2
05:14 34.9 °F 34.7 °F 29.74 in Calm     99% 0.00 in 0 W/m2
05:19 34.8 °F 34.6 °F 29.74 in Calm     99% 0.00 in 0 W/m2
05:24 34.8 °F 34.6 °F 29.74 in Calm     99% 0.00 in 0 W/m2
05:29 34.8 °F 34.6 °F 29.75 in Calm     99% 0.00 in 0 W/m2
05:34 34.8 °F 34.6 °F 29.75 in Calm     99.3% 0.00 in 0 W/m2
05:39 34.8 °F 34.8 °F 29.75 in Calm     100% 0.00 in 0 W/m2
05:44 34.8 °F 34.8 °F 29.75 in Calm     100% 0.00 in 0 W/m2
05:49 34.8 °F 34.8 °F 29.75 in Calm     100% 0.00 in 0 W/m2
05:54 34.8 °F 34.8 °F 29.75 in Calm     100% 0.00 in 0 W/m2
05:59 34.8 °F 34.8 °F 29.75 in Calm     100% 0.00 in 5 W/m2
06:04 34.8 °F 34.8 °F 29.75 in Calm     100% 0.00 in 5 W/m2
06:09 34.8 °F 34.8 °F 29.75 in Calm     100% 0.00 in 5 W/m2
06:14 34.8 °F 34.8 °F 29.75 in Calm     100% 0.00 in 7 W/m2
06:19 34.8 °F 34.8 °F 29.75 in Calm     100% 0.00 in 9 W/m2
06:24 34.8 °F 34.8 °F 29.75 in Calm     100% 0.00 in 12 W/m2
06:29 34.8 °F 34.8 °F 29.75 in Calm     100% 0.00 in 16 W/m2
06:34 34.8 °F 34.8 °F 29.75 in Calm     100% 0.00 in 19 W/m2
06:39 35 °F 35 °F 29.75 in Calm     100% 0.00 in 23 W/m2
06:44 35.1 °F 35.1 °F 29.75 in Calm     100% 0.00 in 28 W/m2
06:49 35.1 °F 35.1 °F 29.75 in Calm     100% 0.00 in 28 W/m2
06:54 35.2 °F 35.2 °F 29.75 in Calm     100% 0.00 in 30 W/m2
06:59 35.3 °F 35.3 °F 29.76 in Calm     100% 0.00 in 32 W/m2
07:04 35.3 °F 35.3 °F 29.76 in Calm     100% 0.00 in 37 W/m2
07:09 35.3 °F 35.3 °F 29.76 in Calm     100% 0.00 in 44 W/m2
07:14 35.4 °F 35.4 °F 29.76 in Calm     100% 0.00 in 51 W/m2
07:19 35.4 °F 35.4 °F 29.76 in Calm     100% 0.00 in 58 W/m2
07:24 35.4 °F 35.4 °F 29.76 in Calm     100% 0.00 in 63 W/m2
07:29 35.4 °F 35.4 °F 29.76 in Calm     100% 0.00 in 70 W/m2
07:34 35.5 °F 35.5 °F 29.76 in Calm     100% 0.00 in 76 W/m2
07:39 35.5 °F 35.5 °F 29.76 in Calm     100% 0.00 in 86 W/m2
07:44 35.7 °F 35.7 °F 29.76 in Calm     100% 0.00 in 95 W/m2
07:49 35.8 °F 35.8 °F 29.76 in Calm     100% 0.00 in 95 W/m2
07:54 36 °F 36 °F 29.76 in Calm     100% 0.00 in 86 W/m2
07:59 36 °F 36 °F 29.76 in Calm     100% 0.00 in 86 W/m2
08:04 36.2 °F 35.9 °F 29.75 in Calm     99.1% 0.00 in 93 W/m2
08:09 36.3 °F 36.1 °F 29.75 in Calm     99% 0.00 in 113 W/m2
08:14 36.4 °F 36.2 °F 29.76 in Calm     99% 0.00 in 125 W/m2
08:19 36.6 °F 36.3 °F 29.76 in Calm     99% 0.00 in 139 W/m2
08:24 36.8 °F 36.5 °F 29.76 in Calm     98.8% 0.00 in 146 W/m2
08:29 37.1 °F 36.6 °F 29.76 in Calm     98% 0.00 in 155 W/m2
08:34 37.3 °F 36.8 °F 29.75 in Calm     97.9% 0.00 in 172 W/m2
08:39 37.5 °F 36.7 °F 29.75 in Calm     97% 0.00 in 187 W/m2
08:44 37.7 °F 36.7 °F 29.75 in Calm     96.3% 0.00 in 206 W/m2
08:49 38 °F 37 °F 29.75 in Calm     96% 0.00 in 209 W/m2
08:54 38.4 °F 37.1 °F 29.75 in Calm     95% 0.00 in 208 W/m2
08:59 38.7 °F 37.2 °F 29.75 in Calm     94.3% 0.00 in 197 W/m2
09:04 38.9 °F 37 °F 29.75 in ENE 0.1 mph 2 mph 92.7% 0.00 in 194 W/m2
09:09 39.1 °F 36.8 °F 29.75 in ESE 0.5 mph 2 mph 91.3% 0.00 in 195 W/m2
09:14 39.4 °F 36.5 °F 29.76 in SSE 0.4 mph 3 mph 89.3% 0.00 in 213 W/m2
09:19 39.7 °F 36.3 °F 29.76 in South 1.1 mph 2 mph 87.8% 0.00 in 243 W/m2
09:24 40 °F 36.5 °F 29.76 in South 0.8 mph 3 mph 87% 0.00 in 257 W/m2
09:29 40.4 °F 36.6 °F 29.76 in South 0.3 mph 3 mph 86.2% 0.00 in 260 W/m2
09:34 40.7 °F 36.5 °F 29.76 in South 0.1 mph 2 mph 84.7% 0.00 in 248 W/m2
09:39 41 °F 36.1 °F 29.76 in Calm     82.7% 0.00 in 238 W/m2
09:44 41.3 °F 35.8 °F 29.76 in SW 0.3 mph 3 mph 80.7% 0.00 in 241 W/m2
09:49 41.6 °F 35.7 °F 29.75 in Calm     79.3% 0.00 in 232 W/m2
09:54 41.9 °F 35.5 °F 29.75 in Calm     77.6% 0.00 in 238 W/m2
09:59 42.4 °F 35.7 °F 29.75 in Calm     77% 0.00 in 238 W/m2
10:04 42.7 °F 35.7 °F 29.75 in Calm     76.2% 0.00 in 209 W/m2
10:09 43 °F 35.5 °F 29.75 in Calm     74.6% 0.00 in 253 W/m2
10:14 43 °F 35.3 °F 29.75 in Calm     74% 0.00 in 260 W/m2
10:19 43.1 °F 35.1 °F 29.75 in Calm     73.2% 0.00 in 287 W/m2
10:24 43 °F 35 °F 29.75 in Calm     73% 0.00 in 357 W/m2
10:29 43 °F 34.9 °F 29.75 in Calm     72.8% 0.00 in 387 W/m2
10:34 43.1 °F 34.8 °F 29.75 in Calm     72.2% 0.00 in 415 W/m2
10:39 43.5 °F 35.3 °F 29.75 in Calm     72.6% 0.00 in 415 W/m2
10:44 44.3 °F 35.3 °F 29.75 in Calm     70.5% 0.00 in 421 W/m2
10:49 44.8 °F 34.8 °F 29.75 in Calm     67.8% 0.00 in 359 W/m2
10:54 45.2 °F 35 °F 29.75 in Calm     67.1% 0.00 in 387 W/m2
10:59 45.5 °F 34.4 °F 29.75 in Calm     65% 0.00 in 373 W/m2
11:04 45.4 °F 34.2 °F 29.74 in Calm     64.6% 0.00 in 366 W/m2
11:09 45.3 °F 34.3 °F 29.74 in Calm     65.2% 0.00 in 348 W/m2
11:14 45.4 °F 34.5 °F 29.74 in Calm     65.4% 0.00 in 377 W/m2
11:19 45.5 °F 34.9 °F 29.74 in Calm     66% 0.00 in 347 W/m2
11:24 45.8 °F 34.5 °F 29.74 in Calm     64.3% 0.00 in 311 W/m2
11:29 45.8 °F 33.9 °F 29.74 in Calm     63% 0.00 in 253 W/m2
11:34 45.9 °F 34.4 °F 29.74 in Calm     63.9% 0.00 in 243 W/m2
11:39 45.8 °F 34.3 °F 29.74 in Calm     63.8% 0.00 in 230 W/m2
11:44 45.4 °F 34.1 °F 29.74 in Calm     64.3% 0.00 in 262 W/m2
11:49 45.4 °F 34.1 °F 29.74 in Calm     64.3% 0.00 in 304 W/m2
11:54 45.7 °F 34.3 °F 29.74 in Calm     63.9% 0.00 in 334 W/m2
11:59 45.9 °F 34.2 °F 29.74 in Calm     63.5% 0.00 in 327 W/m2
12:04 46 °F 34.3 °F 29.74 in Calm     63.5% 0.00 in 334 W/m2
12:09 46.5 °F 34.8 °F 29.74 in Calm     63.6% 0.00 in 347 W/m2
12:14 46.7 °F 34.5 °F 29.74 in Calm     62.3% 0.00 in 354 W/m2
12:19 46.7 °F 34.5 °F 29.74 in Calm     62.4% 0.00 in 352 W/m2
12:24 46.6 °F 34.6 °F 29.74 in Calm     62.8% 0.00 in 303 W/m2
12:29 47.1 °F 35.1 °F 29.74 in Calm   1 mph 62.9% 0.00 in 340 W/m2
12:34 47.1 °F 34.3 °F 29.74 in Calm   1 mph 60.8% 0.00 in 396 W/m2
12:39 47.4 °F 35.1 °F 29.74 in East 0.2 mph 5 mph 62.2% 0.00 in 602 W/m2
12:44 48 °F 35.3 °F 29.74 in ENE 0.1 mph 5 mph 61.2% 0.00 in 435 W/m2
12:49 48.3 °F 34.7 °F 29.73 in Calm     59.1% 0.00 in 512 W/m2
12:54 48.5 °F 35.2 °F 29.73 in Calm   1 mph 59.9% 0.00 in 660 W/m2
12:59 48.9 °F 35.4 °F 29.73 in Calm   2 mph 59.4% 0.00 in 371 W/m2
13:04 48.8 °F 34.9 °F 29.73 in East 0.1 mph 3 mph 58.5% 0.00 in 345 W/m2
13:09 48.6 °F 35 °F 29.73 in Calm     59.1% 0.00 in 449 W/m2
13:14 48.7 °F 35.3 °F 29.73 in Calm     59.7% 0.00 in 449 W/m2
13:19 49 °F 35.1 °F 29.72 in Calm     58.6% 0.00 in 496 W/m2
13:24 49.5 °F 34.9 °F 29.72 in Calm     57% 0.00 in 496 W/m2
13:29 49.5 °F 34.7 °F 29.72 in East 0.5 mph 10 mph 56.6% 0.00 in 366 W/m2
13:34 49.3 °F 35.3 °F 29.72 in Calm   10 mph 58.3% 0.00 in 450 W/m2
13:39 49 °F 34.8 °F 29.72 in ENE 0.2 mph 2 mph 57.9% 0.00 in 438 W/m2
13:44 49.3 °F 35.2 °F 29.72 in Calm     58.1% 0.00 in 438 W/m2
13:49 49.7 °F 35.2 °F 29.72 in East 0.1 mph 6 mph 57.2% 0.00 in 357 W/m2
13:54 50.1 °F 35.7 °F 29.72 in ENE 0.1 mph 6 mph 57.4% 0.00 in 303 W/m2
13:59 50.1 °F 35.1 °F 29.72 in East 0.3 mph 5 mph 56.2% 0.00 in 232 W/m2
14:04 49.8 °F 35.5 °F 29.72 in Calm     57.6% 0.00 in 135 W/m2
14:09 49.2 °F 34.4 °F 29.72 in ESE 0.8 mph 3 mph 56.5% 0.00 in 146 W/m2
14:14 49.1 °F 35.1 °F 29.72 in Calm   3 mph 58.3% 0.00 in 165 W/m2
14:19 49.2 °F 34.9 °F 29.72 in Calm     57.6% 0.00 in 171 W/m2
14:24 49.4 °F 35.4 °F 29.72 in Calm     58.2% 0.00 in 143 W/m2
14:29 49.5 °F 35.6 °F 29.72 in Calm     58.6% 0.00 in 234 W/m2
14:34 49.5 °F 35.4 °F 29.72 in Calm     58.1% 0.00 in 318 W/m2
14:39 49.9 °F 35.7 °F 29.72 in Calm   1 mph 58% 0.00 in 311 W/m2
14:44 50.1 °F 35.6 °F 29.72 in Calm   1 mph 57.2% 0.00 in 413 W/m2
14:49 50.6 °F 35.8 °F 29.72 in Calm     56.6% 0.00 in 348 W/m2
14:54 51 °F 35.3 °F 29.72 in Calm     54.6% 0.00 in 215 W/m2
14:59 51.1 °F 35.4 °F 29.72 in NNE 0.1 mph 1 mph 54.7% 0.00 in 213 W/m2
15:04 51.2 °F 35.6 °F 29.72 in ENE 0.2 mph 3 mph 55% 0.00 in 415 W/m2
15:09 51.6 °F 35.7 °F 29.72 in Calm     54.4% 0.00 in 315 W/m2
15:14 51.7 °F 35.6 °F 29.72 in Calm     54% 0.00 in 310 W/m2
15:19 51.7 °F 35.8 °F 29.71 in Calm     54.5% 0.00 in 408 W/m2
15:24 51.9 °F 36.3 °F 29.71 in Calm     55.1% 0.00 in 327 W/m2
15:29 52 °F 35.9 °F 29.71 in Calm     54% 0.00 in 253 W/m2
15:34 51.8 °F 35.7 °F 29.71 in Calm   1 mph 54.1% 0.00 in 245 W/m2
15:39 51.5 °F 35.6 °F 29.71 in Calm     54.5% 0.00 in 215 W/m2
15:44 51.3 °F 35.6 °F 29.71 in ENE 0.1 mph 2 mph 54.7% 0.00 in 151 W/m2
15:49 51.3 °F 35.2 °F 29.71 in East 0.2 mph 2 mph 54% 0.00 in 135 W/m2
15:54 51.1 °F 35.4 °F 29.71 in Calm     54.7% 0.00 in 179 W/m2
15:59 51.2 °F 35.3 °F 29.71 in Calm   1 mph 54.2% 0.00 in 276 W/m2
16:04 51.3 °F 35.3 °F 29.71 in Calm     54.2% 0.00 in 274 W/m2
16:09 51.3 °F 35.3 °F 29.71 in Calm     54.1% 0.00 in 208 W/m2
16:14 51.6 °F 35.7 °F 29.71 in Calm   1 mph 54.5% 0.00 in 144 W/m2
16:19 51.4 °F 35.2 °F 29.71 in Calm   1 mph 53.7% 0.00 in 132 W/m2
16:24 51.5 °F 35.8 °F 29.71 in Calm     54.7% 0.00 in 236 W/m2
16:29 51.7 °F 35.7 °F 29.71 in Calm     54.3% 0.00 in 289 W/m2
16:34 51.9 °F 35.3 °F 29.71 in ENE 0.1 mph 2 mph 52.8% 0.00 in 274 W/m2
16:39 52.1 °F 35.6 °F 29.71 in ENE 0.2 mph 3 mph 53.1% 0.00 in 260 W/m2
16:44 52.1 °F 35.4 °F 29.71 in Calm     52.7% 0.00 in 236 W/m2
16:49 52.2 °F 35.6 °F 29.71 in Calm     53% 0.00 in 211 W/m2
16:54 52.4 °F 35.8 °F 29.71 in ENE 0.1 mph 2 mph 53% 0.00 in 155 W/m2
16:59 52.3 °F 35.3 °F 29.71 in ENE 0.3 mph 3 mph 52.1% 0.00 in 165 W/m2
17:04 52 °F 35.5 °F 29.71 in Calm   3 mph 53.2% 0.00 in 157 W/m2
17:09 51.7 °F 35.9 °F 29.71 in ENE 0.1 mph 2 mph 54.8% 0.00 in 160 W/m2
17:14 51.6 °F 35.3 °F 29.71 in Calm     53.5% 0.00 in 120 W/m2
17:19 51.6 °F 35.3 °F 29.71 in Calm     53.6% 0.00 in 143 W/m2
17:24 51.7 °F 35.6 °F 29.71 in Calm     54% 0.00 in 150 W/m2
17:29 51.7 °F 35.8 °F 29.72 in Calm     54.3% 0.00 in 153 W/m2
17:34 51.8 °F 35.4 °F 29.72 in Calm     53.3% 0.00 in 143 W/m2
17:39 51.9 °F 35.6 °F 29.72 in Calm     53.7% 0.00 in 123 W/m2
17:44 52 °F 35.5 °F 29.72 in Calm     53.2% 0.00 in 93 W/m2
17:49 51.8 °F 35.7 °F 29.72 in Calm     54% 0.00 in 97 W/m2
17:54 51.8 °F 35.7 °F 29.72 in Calm     54% 0.00 in 99 W/m2
17:59 51.8 °F 35.6 °F 29.72 in Calm   1 mph 53.8% 0.00 in 88 W/m2
18:04 51.8 °F 35.8 °F 29.72 in Calm   1 mph 54.1% 0.00 in 79 W/m2
18:09 51.8 °F 36.4 °F 29.72 in Calm   1 mph 55.5% 0.00 in 109 W/m2
18:14 51.7 °F 36.1 °F 29.72 in Calm     55% 0.00 in 109 W/m2
18:19 51.7 °F 36.5 °F 29.72 in Calm     55.8% 0.00 in 84 W/m2
18:24 51.7 °F 36.3 °F 29.72 in Calm     55.6% 0.00 in 93 W/m2
18:29 51.7 °F 37.4 °F 29.73 in Calm     57.9% 0.00 in 86 W/m2
18:34 51.7 °F 38.4 °F 29.73 in Calm     60.4% 0.00 in 83 W/m2
18:39 51.7 °F 39.4 °F 29.73 in Calm     62.7% 0.00 in 51 W/m2
18:44 51.5 °F 38.5 °F 29.73 in Calm     61.1% 0.00 in 39 W/m2
18:49 51.1 °F 38.5 °F 29.73 in Calm     62% 0.00 in 39 W/m2
18:54 50.6 °F 39.3 °F 29.73 in Calm     65.1% 0.00 in 40 W/m2
18:59 50.1 °F 39 °F 29.73 in Calm     65.7% 0.00 in 37 W/m2
19:04 49.7 °F 38.6 °F 29.73 in Calm     65.6% 0.00 in 26 W/m2
19:09 49.3 °F 39.2 °F 29.73 in Calm     68.1% 0.00 in 19 W/m2
19:14 48.6 °F 39.6 °F 29.73 in Calm     70.7% 0.00 in 16 W/m2
19:19 48.1 °F 39.4 °F 29.73 in Calm     71.9% 0.00 in 14 W/m2
19:24 47.5 °F 39.4 °F 29.73 in Calm     73.4% 0.00 in 11 W/m2
19:29 46.9 °F 39.3 °F 29.73 in Calm     74.9% 0.00 in 11 W/m2
19:34 46.3 °F 39.3 °F 29.73 in Calm     76.4% 0.00 in 9 W/m2
19:39 45.7 °F 39.3 °F 29.73 in Calm     78.2% 0.00 in 7 W/m2
19:44 45.1 °F 39.1 °F 29.74 in Calm     79.4% 0.00 in 5 W/m2
19:49 44.5 °F 38.8 °F 29.74 in Calm     80.5% 0.00 in 0 W/m2
19:54 44 °F 38.6 °F 29.74 in Calm     81.3% 0.00 in 0 W/m2
19:59 43.5 °F 38.4 °F 29.74 in Calm     82% 0.00 in 0 W/m2
20:04 43 °F 38.2 °F 29.74 in Calm     83% 0.00 in 0 W/m2
20:09 42.5 °F 38 °F 29.74 in Calm     83.9% 0.00 in 0 W/m2
20:14 42.1 °F 37.6 °F 29.75 in Calm     84% 0.00 in 0 W/m2
20:19 41.6 °F 37.4 °F 29.75 in Calm     84.9% 0.00 in 0 W/m2
20:24 41.2 °F 37.1 °F 29.75 in Calm     85% 0.00 in 0 W/m2
20:29 40.8 °F 36.9 °F 29.76 in Calm     85.7% 0.00 in 0 W/m2
20:34 40.5 °F 36.6 °F 29.76 in Calm     86% 0.00 in 0 W/m2
20:39 40.2 °F 36.6 °F 29.76 in Calm     86.8% 0.00 in 0 W/m2
20:44 39.9 °F 36.4 °F 29.76 in Calm     87% 0.00 in 0 W/m2
20:49 39.7 °F 36.3 °F 29.76 in Calm     87.7% 0.00 in 0 W/m2
20:54 39.4 °F 36.1 °F 29.76 in Calm     88% 0.00 in 0 W/m2
20:59 39 °F 35.8 °F 29.77 in Calm     88% 0.00 in 0 W/m2
21:04 38.7 °F 35.7 °F 29.77 in Calm     88.9% 0.00 in 0 W/m2
21:09 38.4 °F 35.5 °F 29.77 in Calm     89% 0.00 in 0 W/m2
21:14 38.2 °F 35.3 °F 29.77 in Calm     89.2% 0.00 in 0 W/m2
21:19 37.9 °F 35.2 °F 29.77 in Calm     90% 0.00 in 0 W/m2
21:24 37.7 °F 35 °F 29.77 in Calm     90% 0.00 in 0 W/m2
21:29 37.5 °F 34.8 °F 29.78 in Calm     90.1% 0.00 in 0 W/m2
21:34 37.3 °F 34.9 °F 29.78 in Calm     91% 0.00 in 0 W/m2
21:39 37 °F 34.6 °F 29.78 in Calm     91% 0.00 in 0 W/m2
21:44 36.8 °F 34.4 °F 29.78 in Calm     91.2% 0.00 in 0 W/m2
21:49 36.6 °F 34.5 °F 29.78 in Calm     92% 0.00 in 0 W/m2
21:54 36.4 °F 34.3 °F 29.78 in Calm     92% 0.00 in 0 W/m2
21:59 36.4 °F 34.4 °F 29.78 in Calm     92.4% 0.00 in 0 W/m2
22:04 36.4 °F 34.6 °F 29.78 in Calm     93% 0.00 in 0 W/m2
22:09 36.4 °F 34.5 °F 29.78 in Calm     93% 0.00 in 0 W/m2
22:14 36.3 °F 34.5 °F 29.79 in Calm     93% 0.00 in 0 W/m2
22:19 36.3 °F 34.5 °F 29.79 in Calm     93% 0.00 in 0 W/m2
22:24 36.3 °F 34.7 °F 29.79 in Calm     94% 0.00 in 0 W/m2
22:29 36.4 °F 34.8 °F 29.79 in Calm     94% 0.00 in 0 W/m2
22:34 36.4 °F 34.8 °F 29.79 in Calm     94% 0.00 in 0 W/m2
22:39 36.4 °F 34.8 °F 29.79 in Calm     94% 0.00 in 0 W/m2
22:44 36.4 °F 34.8 °F 29.79 in Calm     94% 0.00 in 0 W/m2
22:49 36.4 °F 34.8 °F 29.79 in Calm     94% 0.00 in 0 W/m2
22:54 36.5 °F 34.9 °F 29.79 in Calm     94% 0.00 in 0 W/m2
22:59 36.5 °F 34.9 °F 29.79 in Calm     94% 0.00 in 0 W/m2
23:04 36.5 °F 35 °F 29.79 in Calm     94.2% 0.00 in 0 W/m2
23:09 36.5 °F 35.1 °F 29.79 in Calm     94.4% 0.00 in 0 W/m2
23:14 36.5 °F 34.9 °F 29.79 in Calm     94% 0.00 in 0 W/m2
23:19 36.5 °F 34.9 °F 29.79 in Calm     94% 0.00 in 0 W/m2
23:24 36.4 °F 34.8 °F 29.79 in Calm     94% 0.00 in 0 W/m2
23:29 36.4 °F 34.8 °F 29.79 in Calm     94% 0.00 in 0 W/m2
23:34 36.2 °F 34.7 °F 29.79 in Calm     94% 0.00 in 0 W/m2
23:39 36.1 °F 34.5 °F 29.79 in Calm     94% 0.00 in 0 W/m2
23:44 36 °F 34.5 °F 29.79 in Calm     94.3% 0.00 in 0 W/m2
23:49 35.8 °F 34.5 °F 29.79 in Calm     95% 0.00 in 0 W/m2
23:54 35.7 °F 34.4 °F 29.79 in Calm     95% 0.00 in 0 W/m2
23:59 35.5 °F 34.2 °F 29.79 in Calm     95% 0.00 in 0 W/m2
Lisbon, New Hampshire, USA
Compliments of Weather Underground - 4 mb